Shrub Oak, NY (10588)

6:27 AM EST on March 06, 2015 (GMT -0500)
Mohegan Lake | Change Station
CLOSE
Current Station
Personal Weather Station
Location: Mohegan Lake, NY
Elevation: 577 ft
Nearby Weather Stations

Elev 577 ft 41.32 °N, 73.85 °W | Updated 2 minutes ago

Clear
Clear
3.0 °F
Feels Like 3 °F
N
1.7
Wind Variable Wind from ESE

Today
High -- | Low -- °F
--% Chance of Precip.
Yesterday
High -- | Low -- °F
Precip. -- in
6:22 AM 5:51 PM
Full, 100% visible
Pressure 30.47 in
Visibility 10.0 miles
Clouds Clear
Windchill 3 °F
Dew Point -2 °F
Humidity 81%
Rainfall in
Snow Depth Not available.
UV 0 out of 12
Pollen .50 out of 12
Air Quality Not available.
Flu Activity Not available.
METAR KSWF 061045Z 00000KT 10SM SKC M17/M20 A3047

More Conditions Fewer Conditions

Pressure 30.47 in
Visibility 10.0 miles
Clouds Clear
Windchill 3 °F
Dew Point -2 °F
Humidity 81%
Rainfall in
Snow Depth Not available.
UV 0 out of 12
Pollen .50 out of 12
Air Quality Not available.
Flu Activity Not available.
METAR KSWF 061045Z 00000KT 10SM SKC M17/M20 A3047

More Conditions Fewer Conditions

10-Day Weather Forecast

Almanac

Astronomy

Mar. 06, 2015 Rise Set
Actual Time
Civil Twilight
Nautical Twilight
Astronomical Twilight
Moon
Length of Visible Light
Length of Day
Tomorrow will be .
, % of the Moon is Illuminated

Today's Extremes

State Highs State Lows

Community

WunderPhotos

Upload Photos

1,803,225 photos uploaded!

WunderBlogs® & News

Nearby

Air Quality

  Air Quality AQ Index Pollutant
Not available.

Snow Depth

Station Depth Elevation

Earthquake Activity

City Distance Mag. Time & Date
Minimum magnitude displayed is 2.5.

Coastal Water Temperatures

Place Temperature

Nearby Weather Stations